createdAt,value
2019-04-30T00:02:05.762Z,25.40
2019-04-30T00:04:40.553Z,29.90
2019-04-30T00:07:10.396Z,28.00
2019-04-30T00:09:41.537Z,27.27
2019-04-30T00:12:10.830Z,30.03
2019-04-30T00:14:41.331Z,29.90
2019-04-30T00:17:15.041Z,32.47
2019-04-30T00:19:41.596Z,25.30
2019-04-30T00:22:10.693Z,31.73
2019-04-30T00:24:46.855Z,27.40
2019-04-30T00:27:12.128Z,29.93
2019-04-30T00:29:41.332Z,26.67
2019-04-30T00:32:10.473Z,27.13
2019-04-30T00:34:39.580Z,28.10
2019-04-30T00:37:13.862Z,28.23
2019-04-30T00:39:44.292Z,29.37
2019-04-30T00:42:12.231Z,27.83
2019-04-30T00:44:41.366Z,29.00
2019-04-30T00:47:10.589Z,31.83
2019-04-30T00:49:39.738Z,32.67
2019-04-30T00:52:09.045Z,29.53
2019-04-30T00:54:38.264Z,31.97
2019-04-30T00:57:07.780Z,33.57
2019-04-30T00:59:39.694Z,30.23
2019-04-30T01:02:28.898Z,39.47
2019-04-30T01:05:00.188Z,37.17
2019-04-30T01:07:27.360Z,39.60
2019-04-30T01:09:56.758Z,34.17
2019-04-30T01:12:31.021Z,35.23
2019-04-30T01:14:57.050Z,33.47
2019-04-30T01:17:26.178Z,34.27
2019-04-30T01:19:55.456Z,38.80
2019-04-30T01:22:28.215Z,40.17
2019-04-30T01:24:56.314Z,38.80
2019-04-30T01:27:25.509Z,42.77
2019-04-30T01:29:54.833Z,38.10
2019-04-30T01:32:23.947Z,33.67
2019-04-30T01:34:54.011Z,37.40
2019-04-30T01:37:28.366Z,40.40
2019-04-30T01:39:54.056Z,40.07
2019-04-30T01:42:23.590Z,36.93
2019-04-30T01:44:54.005Z,41.00
2019-04-30T01:47:27.702Z,41.50
2019-04-30T01:49:55.857Z,43.10
2019-04-30T01:52:31.045Z,45.23
2019-04-30T01:54:58.663Z,51.03
2019-04-30T01:57:35.830Z,43.80
2019-04-30T02:00:30.741Z,39.77
2019-04-30T02:03:00.265Z,39.97
2019-04-30T02:05:29.368Z,44.80
2019-04-30T02:07:58.636Z,45.07
2019-04-30T02:10:28.550Z,42.00
2019-04-30T02:12:59.077Z,47.93
2019-04-30T02:15:29.181Z,47.30
2019-04-30T02:17:58.911Z,46.03
2019-04-30T02:20:28.835Z,48.70
2019-04-30T02:22:58.651Z,50.73
2019-04-30T02:25:29.548Z,48.63
2019-04-30T02:27:59.266Z,47.37
2019-04-30T02:30:30.931Z,44.70
2019-04-30T02:33:00.626Z,49.00
2019-04-30T02:35:54.891Z,44.83
2019-04-30T02:38:30.043Z,47.80
2019-04-30T02:40:59.908Z,45.07
2019-04-30T02:43:30.353Z,54.60
2019-04-30T02:46:00.525Z,46.53
2019-04-30T02:48:30.809Z,52.70
2019-04-30T02:51:01.723Z,42.83
2019-04-30T02:54:24.074Z,46.13
2019-04-30T02:56:59.750Z,50.20
2019-04-30T02:59:30.031Z,45.93
2019-04-30T03:01:59.902Z,45.63
2019-04-30T03:04:29.527Z,48.20
2019-04-30T03:06:59.724Z,46.67
2019-04-30T03:09:29.665Z,51.63
2019-04-30T03:12:00.269Z,47.07
2019-04-30T03:14:30.149Z,50.37
2019-04-30T03:17:21.151Z,53.20
2019-04-30T03:20:03.123Z,45.50
2019-04-30T03:22:30.229Z,51.97
2019-04-30T03:24:59.765Z,53.97
2019-04-30T03:27:30.161Z,52.80
2019-04-30T03:30:00.276Z,53.27
2019-04-30T03:32:35.790Z,57.80
2019-04-30T03:35:03.245Z,54.60
2019-04-30T03:37:31.416Z,58.47
2019-04-30T03:40:00.800Z,60.97
2019-04-30T03:42:29.959Z,56.50
2019-04-30T03:44:59.346Z,54.90
2019-04-30T03:47:30.056Z,49.30
2019-04-30T03:50:00.119Z,54.63
2019-04-30T03:52:29.550Z,51.20
2019-04-30T03:54:59.652Z,52.83
2019-04-30T03:57:30.416Z,49.63
2019-04-30T03:59:59.640Z,60.03
2019-04-30T04:02:45.664Z,53.53
2019-04-30T04:05:26.941Z,52.47
2019-04-30T04:08:01.385Z,54.50
2019-04-30T04:10:44.477Z,54.60
2019-04-30T04:13:13.566Z,57.57
2019-04-30T04:15:42.642Z,52.30
2019-04-30T04:18:11.718Z,52.00
2019-04-30T04:20:42.842Z,52.90
2019-04-30T04:23:12.223Z,53.97
2019-04-30T04:25:41.390Z,51.77
2019-04-30T04:28:10.725Z,56.53
2019-04-30T04:30:42.839Z,57.30
2019-04-30T04:33:11.107Z,55.60
2019-04-30T04:35:40.425Z,55.33
2019-04-30T04:38:12.241Z,53.63
2019-04-30T04:40:40.486Z,56.33
2019-04-30T04:43:10.513Z,55.57
2019-04-30T04:45:43.479Z,59.37
2019-04-30T04:48:11.112Z,53.80
2019-04-30T04:50:40.330Z,55.97
2019-04-30T04:53:11.534Z,52.47
2019-04-30T04:55:40.773Z,59.20
2019-04-30T04:58:12.957Z,61.27
2019-04-30T05:00:41.106Z,54.13
2019-04-30T05:03:20.151Z,57.03
2019-04-30T05:05:50.006Z,57.93
2019-04-30T05:08:19.671Z,47.83
2019-04-30T05:10:49.502Z,52.97
2019-04-30T05:13:19.297Z,54.63
2019-04-30T05:15:49.238Z,52.03
2019-04-30T05:18:19.294Z,52.33
2019-04-30T05:20:49.064Z,50.60
2019-04-30T05:23:21.863Z,47.17
2019-04-30T05:25:52.924Z,52.53
2019-04-30T05:28:22.037Z,50.13
2019-04-30T05:30:51.110Z,50.80
2019-04-30T05:33:20.848Z,52.57
2019-04-30T05:35:49.927Z,51.97
2019-04-30T05:38:19.065Z,48.43
2019-04-30T05:40:49.529Z,48.80
2019-04-30T05:43:19.272Z,55.47
2019-04-30T05:45:49.232Z,49.40
2019-04-30T05:48:18.968Z,50.27
2019-04-30T05:50:49.368Z,58.37
2019-04-30T05:53:19.175Z,54.07
2019-04-30T05:55:49.393Z,52.83
2019-04-30T05:58:19.729Z,51.97
2019-04-30T06:00:49.913Z,52.97
2019-04-30T06:03:27.633Z,53.33
2019-04-30T06:05:50.103Z,51.27
2019-04-30T06:08:21.010Z,45.73
2019-04-30T06:11:09.367Z,53.10
2019-04-30T06:14:16.241Z,51.40
2019-04-30T06:17:03.752Z,45.57
2019-04-30T06:19:32.833Z,46.37
2019-04-30T06:22:07.533Z,48.23
2019-04-30T06:24:32.735Z,48.80
2019-04-30T06:27:01.870Z,49.90
2019-04-30T06:29:31.329Z,53.53
2019-04-30T06:32:00.499Z,52.23
2019-04-30T06:34:29.990Z,44.27
2019-04-30T06:36:59.736Z,47.63
2019-04-30T06:39:28.990Z,53.10
2019-04-30T06:42:04.942Z,54.10
2019-04-30T06:44:37.499Z,45.93
2019-04-30T06:47:01.879Z,39.90
2019-04-30T06:49:30.976Z,47.00
2019-04-30T06:52:00.070Z,45.97
2019-04-30T06:54:29.178Z,45.53
2019-04-30T06:56:59.642Z,40.80
2019-04-30T06:59:29.942Z,40.57
2019-04-30T07:01:59.112Z,42.53
2019-04-30T07:04:29.959Z,41.93
2019-04-30T07:06:59.361Z,44.60
2019-04-30T07:09:55.577Z,39.43
2019-04-30T07:12:42.803Z,44.30
2019-04-30T07:15:13.663Z,45.73
2019-04-30T07:17:42.891Z,44.63
2019-04-30T07:20:12.005Z,50.90
2019-04-30T07:22:49.677Z,38.30
2019-04-30T07:25:12.440Z,44.57
2019-04-30T07:27:43.780Z,38.13
2019-04-30T07:30:13.246Z,39.80
2019-04-30T07:32:42.396Z,46.07
2019-04-30T07:35:11.558Z,39.00
2019-04-30T07:37:40.673Z,42.53
2019-04-30T07:40:09.955Z,41.60
2019-04-30T07:42:44.666Z,40.67
2019-04-30T07:45:10.157Z,41.30
2019-04-30T07:47:39.751Z,37.70
2019-04-30T07:50:10.599Z,38.20
2019-04-30T07:52:58.116Z,43.57
2019-04-30T07:55:10.967Z,39.47
2019-04-30T07:57:40.605Z,37.60
2019-04-30T08:00:10.384Z,41.10
2019-04-30T08:02:45.209Z,40.60
2019-04-30T08:05:20.325Z,42.00
2019-04-30T08:07:49.950Z,37.27
2019-04-30T08:10:19.130Z,43.10
2019-04-30T08:12:50.392Z,40.17
2019-04-30T08:15:19.901Z,39.90
2019-04-30T08:18:02.203Z,42.97
2019-04-30T08:20:19.917Z,39.63
2019-04-30T08:22:49.431Z,39.30
2019-04-30T08:25:19.830Z,39.03
2019-04-30T08:27:49.463Z,43.10
2019-04-30T08:30:26.104Z,42.13
2019-04-30T08:32:50.206Z,43.50
2019-04-30T08:35:19.809Z,42.97
2019-04-30T08:37:49.814Z,39.97
2019-04-30T08:40:19.253Z,42.17
2019-04-30T08:42:49.500Z,41.67
2019-04-30T08:45:19.645Z,48.10
2019-04-30T08:47:49.491Z,46.57
2019-04-30T08:50:19.909Z,39.90
2019-04-30T08:52:50.159Z,42.87
2019-04-30T08:55:22.385Z,40.53
2019-04-30T08:57:50.427Z,36.00
2019-04-30T09:00:19.710Z,36.97
2019-04-30T09:02:49.304Z,42.47
2019-04-30T09:05:43.561Z,36.67
2019-04-30T09:08:13.661Z,33.67
2019-04-30T09:10:42.731Z,33.80
2019-04-30T09:13:11.999Z,33.00
2019-04-30T09:15:41.126Z,33.73
2019-04-30T09:18:12.570Z,35.53
2019-04-30T09:20:42.054Z,32.60
2019-04-30T09:23:13.180Z,33.00
2019-04-30T09:25:42.552Z,34.27
2019-04-30T09:28:11.762Z,34.23
2019-04-30T09:30:40.917Z,35.63
2019-04-30T09:33:11.179Z,30.40
2019-04-30T09:35:40.565Z,33.57
2019-04-30T09:38:09.615Z,33.20
2019-04-30T09:40:41.562Z,31.90
2019-04-30T09:43:09.967Z,31.17
2019-04-30T09:45:39.084Z,32.47
2019-04-30T09:48:09.419Z,34.23
2019-04-30T09:50:39.402Z,29.23
2019-04-30T09:53:09.895Z,33.10
2019-04-30T09:55:40.547Z,36.13
2019-04-30T09:58:17.165Z,31.53
2019-04-30T10:00:40.683Z,30.67
2019-04-30T10:03:10.765Z,28.97
2019-04-30T10:05:40.276Z,35.73
2019-04-30T10:08:09.820Z,25.20
2019-04-30T10:10:52.686Z,29.43
2019-04-30T10:13:21.911Z,30.37
2019-04-30T10:15:59.199Z,28.90
2019-04-30T10:18:28.396Z,28.73
2019-04-30T10:20:58.894Z,30.27
2019-04-30T10:23:30.354Z,24.97
2019-04-30T10:25:59.831Z,28.40
2019-04-30T10:28:29.277Z,32.20
2019-04-30T10:30:58.341Z,24.70
2019-04-30T10:33:28.704Z,30.20
2019-04-30T10:35:59.486Z,29.17
2019-04-30T10:38:29.411Z,27.43
2019-04-30T10:40:58.764Z,24.60
2019-04-30T10:43:31.923Z,24.93
2019-04-30T10:46:00.513Z,27.20
2019-04-30T10:48:29.651Z,25.00
2019-04-30T10:50:59.325Z,22.10
2019-04-30T10:53:28.694Z,22.93
2019-04-30T10:55:59.460Z,24.70
2019-04-30T10:58:28.770Z,20.77
2019-04-30T11:01:01.670Z,26.00
2019-04-30T11:03:29.226Z,26.20
2019-04-30T11:05:58.639Z,27.60
2019-04-30T11:08:27.816Z,22.47
2019-04-30T11:10:57.090Z,22.57
2019-04-30T11:13:26.267Z,19.60
2019-04-30T11:15:55.442Z,21.50
2019-04-30T11:18:24.755Z,17.67
2019-04-30T11:20:54.103Z,21.40
2019-04-30T11:23:24.116Z,21.60
2019-04-30T11:25:53.722Z,20.10
2019-04-30T11:28:24.018Z,24.03
2019-04-30T11:30:58.823Z,22.37
2019-04-30T11:33:28.627Z,26.80
2019-04-30T11:36:03.089Z,20.13
2019-04-30T11:38:29.923Z,21.10
2019-04-30T11:40:59.300Z,21.47
2019-04-30T11:43:29.457Z,22.60
2019-04-30T11:46:36.320Z,19.20
2019-04-30T11:49:05.944Z,22.30
2019-04-30T11:51:34.950Z,21.13
2019-04-30T11:54:04.051Z,22.40
2019-04-30T11:56:33.305Z,20.13
2019-04-30T11:59:02.472Z,21.10
2019-04-30T12:01:32.082Z,20.20
2019-04-30T12:04:01.207Z,23.43
2019-04-30T12:06:30.336Z,18.23
2019-04-30T12:09:10.150Z,19.70
2019-04-30T12:11:39.378Z,17.90
2019-04-30T12:14:08.772Z,18.60
2019-04-30T12:16:39.555Z,17.63
2019-04-30T12:19:09.185Z,20.23
2019-04-30T12:21:38.227Z,17.70
2019-04-30T12:24:07.713Z,21.10
2019-04-30T12:26:38.817Z,20.37
2019-04-30T12:29:08.976Z,17.97
2019-04-30T12:31:39.056Z,19.77
2019-04-30T12:34:08.215Z,20.77
2019-04-30T12:36:38.796Z,21.57
2019-04-30T12:39:08.176Z,21.70
2019-04-30T12:41:40.386Z,21.70
2019-04-30T12:44:08.809Z,21.87
2019-04-30T12:46:38.764Z,17.10
2019-04-30T12:49:12.168Z,25.50
2019-04-30T12:51:59.284Z,21.53
2019-04-30T12:54:48.673Z,21.83
2019-04-30T12:57:29.488Z,24.60
2019-04-30T13:00:00.473Z,18.53
2019-04-30T13:02:29.940Z,23.23
2019-04-30T13:05:00.478Z,17.93
2019-04-30T13:07:30.903Z,23.13
2019-04-30T13:10:01.759Z,21.60
2019-04-30T13:12:31.789Z,19.77
2019-04-30T13:15:01.327Z,21.33
2019-04-30T13:17:30.567Z,18.20
2019-04-30T13:19:59.740Z,19.00
2019-04-30T13:22:29.065Z,18.83
2019-04-30T13:24:59.680Z,17.67
2019-04-30T13:27:31.126Z,19.50
2019-04-30T13:30:11.942Z,21.20
2019-04-30T13:32:49.339Z,22.23
2019-04-30T13:35:19.146Z,19.73
2019-04-30T13:37:56.465Z,25.33
2019-04-30T13:40:44.576Z,21.07
2019-04-30T13:43:14.094Z,25.53
2019-04-30T13:45:43.417Z,22.37
2019-04-30T13:48:12.876Z,19.27
2019-04-30T13:50:42.031Z,19.03
2019-04-30T13:53:11.206Z,16.30
2019-04-30T13:55:45.687Z,20.43
2019-04-30T13:58:11.379Z,17.70
2019-04-30T14:00:40.649Z,14.50
2019-04-30T14:03:21.257Z,15.50
2019-04-30T14:05:51.555Z,17.70
2019-04-30T14:08:28.843Z,13.50
2019-04-30T14:10:59.206Z,16.17
2019-04-30T14:13:28.442Z,14.67
2019-04-30T14:15:57.617Z,20.10
2019-04-30T14:18:30.868Z,15.40
2019-04-30T14:21:00.792Z,16.13
2019-04-30T14:23:28.902Z,14.87
2019-04-30T14:26:00.933Z,17.00
2019-04-30T14:28:29.263Z,15.60
2019-04-30T14:30:58.527Z,13.17
2019-04-30T14:33:29.366Z,12.00
2019-04-30T14:36:00.557Z,13.03
2019-04-30T14:38:29.335Z,16.32
2019-04-30T14:41:00.656Z,15.20
2019-04-30T14:43:42.794Z,14.53
2019-04-30T14:46:32.765Z,15.37
2019-04-30T14:49:22.389Z,15.60
2019-04-30T14:51:52.260Z,13.20
2019-04-30T14:54:32.270Z,15.63
2019-04-30T14:57:07.583Z,15.63
2019-04-30T14:59:50.961Z,14.13
2019-04-30T15:02:42.017Z,16.30
2019-04-30T15:05:11.782Z,13.23
2019-04-30T15:07:41.225Z,16.73
2019-04-30T15:10:10.511Z,13.23
2019-04-30T15:12:39.610Z,19.27
2019-04-30T15:15:09.225Z,11.93
2019-04-30T15:17:41.107Z,11.20
2019-04-30T15:20:10.982Z,16.93
2019-04-30T15:22:43.308Z,16.50
2019-04-30T15:25:12.507Z,14.83
2019-04-30T15:27:45.164Z,12.60
2019-04-30T15:30:21.684Z,12.10
2019-04-30T15:32:45.935Z,14.73
2019-04-30T15:35:14.992Z,13.87
2019-04-30T15:37:45.966Z,12.13
2019-04-30T15:40:15.810Z,15.37
2019-04-30T15:42:46.558Z,12.33
2019-04-30T15:45:19.059Z,11.70
2019-04-30T15:47:48.669Z,14.40
2019-04-30T15:50:19.550Z,20.20
2019-04-30T15:52:48.857Z,11.53
2019-04-30T15:55:18.962Z,11.63
2019-04-30T15:58:07.105Z,12.60
2019-04-30T16:00:36.724Z,14.53
2019-04-30T16:03:11.856Z,11.63
2019-04-30T16:05:43.560Z,14.47
2019-04-30T16:08:26.428Z,11.30
2019-04-30T16:11:14.717Z,14.10
2019-04-30T16:14:18.578Z,10.43
2019-04-30T16:17:04.853Z,13.27
2019-04-30T16:19:33.991Z,11.80
2019-04-30T16:22:03.052Z,11.03
2019-04-30T16:24:32.165Z,13.13
2019-04-30T16:27:01.238Z,11.93
2019-04-30T16:29:30.766Z,10.73
2019-04-30T16:31:59.867Z,12.57
2019-04-30T16:34:30.399Z,10.57
2019-04-30T16:36:59.690Z,10.53
2019-04-30T16:39:28.930Z,9.70
2019-04-30T16:41:59.180Z,11.20
2019-04-30T16:44:28.322Z,10.97
2019-04-30T16:46:59.514Z,10.63
2019-04-30T16:49:28.990Z,11.80
2019-04-30T16:52:01.573Z,10.03
2019-04-30T16:54:30.716Z,11.23
2019-04-30T16:57:04.091Z,9.60
2019-04-30T16:59:38.803Z,10.73
2019-04-30T17:02:09.324Z,12.90
2019-04-30T17:05:03.521Z,14.33
2019-04-30T17:07:52.273Z,13.40
2019-04-30T17:10:35.346Z,12.73
2019-04-30T17:13:18.884Z,11.03
2019-04-30T17:15:48.708Z,9.73
2019-04-30T17:18:19.053Z,9.10
2019-04-30T17:20:49.164Z,9.47
2019-04-30T17:23:19.309Z,11.90
2019-04-30T17:25:48.517Z,10.63
2019-04-30T17:28:18.799Z,11.53
2019-04-30T17:30:49.180Z,12.10
2019-04-30T17:33:18.501Z,12.27
2019-04-30T17:35:49.748Z,10.27
2019-04-30T17:38:19.125Z,8.60
2019-04-30T17:40:49.680Z,10.63
2019-04-30T17:43:18.901Z,11.67
2019-04-30T17:45:49.344Z,9.10
2019-04-30T17:48:18.869Z,11.00
2019-04-30T17:50:49.759Z,8.57
2019-04-30T17:53:19.110Z,8.23
2019-04-30T17:55:49.064Z,10.83
2019-04-30T17:58:20.618Z,9.33
2019-04-30T18:00:53.170Z,12.23
2019-04-30T18:03:22.379Z,10.40
2019-04-30T18:05:51.447Z,7.03
2019-04-30T18:08:21.242Z,8.87
2019-04-30T18:10:50.612Z,7.90
2019-04-30T18:13:19.979Z,9.23
2019-04-30T18:15:49.138Z,9.80
2019-04-30T18:18:46.515Z,7.97
2019-04-30T18:21:29.302Z,7.87
2019-04-30T18:24:16.178Z,8.67
2019-04-30T18:26:50.220Z,12.43
2019-04-30T18:29:19.512Z,20.87
2019-04-30T18:31:48.802Z,29.83
2019-04-30T18:34:19.449Z,24.70
2019-04-30T18:36:51.208Z,18.20
2019-04-30T18:39:19.699Z,18.47
2019-04-30T18:41:49.094Z,16.63
2019-04-30T18:44:19.556Z,17.00
2019-04-30T18:46:49.184Z,15.87
2019-04-30T18:49:18.732Z,18.83
2019-04-30T18:51:49.242Z,16.03
2019-04-30T18:54:20.928Z,12.90
2019-04-30T18:56:49.891Z,13.70
2019-04-30T18:59:19.624Z,11.77
2019-04-30T19:01:48.812Z,10.73
2019-04-30T19:04:18.898Z,11.60
2019-04-30T19:06:48.971Z,10.17
2019-04-30T19:09:30.036Z,12.40
2019-04-30T19:12:29.142Z,9.57
2019-04-30T19:15:11.265Z,14.03
2019-04-30T19:18:02.516Z,12.43
2019-04-30T19:20:44.426Z,12.07
2019-04-30T19:23:13.805Z,12.70
2019-04-30T19:25:43.091Z,11.73
2019-04-30T19:28:14.567Z,12.47
2019-04-30T19:30:55.059Z,12.50
2019-04-30T19:33:14.407Z,10.43
2019-04-30T19:35:43.909Z,11.50
2019-04-30T19:38:14.019Z,14.00
2019-04-30T19:40:43.190Z,20.40
2019-04-30T19:43:12.706Z,11.67
2019-04-30T19:45:42.103Z,9.50
2019-04-30T19:48:11.745Z,11.47
2019-04-30T19:50:41.380Z,14.47
2019-04-30T19:53:11.277Z,11.67
2019-04-30T19:55:41.073Z,19.00
2019-04-30T19:58:14.485Z,12.20
2019-04-30T20:06:39.560Z,11.87
2019-04-30T20:09:09.200Z,12.13
2019-04-30T20:11:42.536Z,14.23
2019-04-30T20:14:11.831Z,12.77
2019-04-30T20:16:41.029Z,12.73
2019-04-30T20:19:10.216Z,18.60
2019-04-30T20:21:50.414Z,13.70
2019-04-30T20:24:10.655Z,13.00
2019-04-30T20:26:39.916Z,12.57
2019-04-30T20:29:09.406Z,12.33
2019-04-30T20:31:38.743Z,13.80
2019-04-30T20:34:09.206Z,14.30
2019-04-30T20:36:38.948Z,17.70
2019-04-30T20:39:24.000Z,17.87
2019-04-30T20:41:54.074Z,17.00
2019-04-30T20:44:23.300Z,14.93
2019-04-30T20:46:53.117Z,17.60
2019-04-30T20:49:22.350Z,22.60
2019-04-30T20:51:55.180Z,16.50
2019-04-30T20:54:22.957Z,19.70
2019-04-30T20:56:52.423Z,17.30
2019-04-30T20:59:21.589Z,17.33
2019-04-30T21:01:51.181Z,17.67
2019-04-30T21:04:21.058Z,16.80
2019-04-30T21:06:50.450Z,23.73
2019-04-30T21:09:20.011Z,16.37
2019-04-30T21:11:49.423Z,19.87
2019-04-30T21:14:19.194Z,19.57
2019-04-30T21:16:48.695Z,26.13
2019-04-30T21:19:17.892Z,18.87
2019-04-30T21:21:47.207Z,16.90
2019-04-30T21:24:16.476Z,17.07
2019-04-30T21:26:45.922Z,21.70
2019-04-30T21:29:16.065Z,18.50
2019-04-30T21:32:10.306Z,16.10
2019-04-30T21:34:43.637Z,18.80
2019-04-30T21:37:12.931Z,22.13
2019-04-30T21:39:42.150Z,22.77
2019-04-30T21:42:11.320Z,17.13
2019-04-30T21:44:42.049Z,16.37
2019-04-30T21:47:11.566Z,19.57
2019-04-30T21:49:40.636Z,20.00
2019-04-30T21:52:09.942Z,20.10
2019-04-30T21:54:39.133Z,16.83
2019-04-30T21:57:08.286Z,18.80
2019-04-30T21:59:38.848Z,16.53
2019-04-30T22:02:08.353Z,21.37
2019-04-30T22:04:37.791Z,20.03
2019-04-30T22:07:09.289Z,18.77
2019-04-30T22:09:38.246Z,18.47
2019-04-30T22:12:09.197Z,22.27
2019-04-30T22:14:38.526Z,22.23
2019-04-30T22:17:09.319Z,25.90
2019-04-30T22:19:38.540Z,20.87
2019-04-30T22:22:09.399Z,23.00
2019-04-30T22:24:38.944Z,20.23
2019-04-30T22:27:08.059Z,23.97
2019-04-30T22:29:41.850Z,23.00
2019-04-30T22:32:09.339Z,22.40
2019-04-30T22:34:38.699Z,24.43
2019-04-30T22:37:08.570Z,21.60
2019-04-30T22:40:01.336Z,22.50
2019-04-30T22:42:32.693Z,22.60
2019-04-30T22:45:02.768Z,23.10
2019-04-30T22:47:32.166Z,21.30
2019-04-30T22:50:01.344Z,20.67
2019-04-30T22:52:30.616Z,21.10
2019-04-30T22:54:59.794Z,25.90
2019-04-30T22:57:29.110Z,23.03
2019-04-30T22:59:58.603Z,25.67
2019-04-30T23:02:50.251Z,23.10
2019-04-30T23:05:19.830Z,23.70
2019-04-30T23:07:49.268Z,20.73
2019-04-30T23:10:18.806Z,21.60
2019-04-30T23:12:50.212Z,19.70
2019-04-30T23:15:20.405Z,24.27
2019-04-30T23:17:49.758Z,20.97
2019-04-30T23:20:18.865Z,21.40
2019-04-30T23:22:48.032Z,23.43
2019-04-30T23:25:17.467Z,24.73
2019-04-30T23:27:46.531Z,22.93
2019-04-30T23:30:15.723Z,21.40
2019-04-30T23:32:44.987Z,23.70
2019-04-30T23:35:14.282Z,23.63
2019-04-30T23:37:43.773Z,22.87
2019-04-30T23:40:29.542Z,23.63
2019-04-30T23:42:58.912Z,20.60
2019-04-30T23:45:28.672Z,26.90
2019-04-30T23:47:58.013Z,27.50
2019-04-30T23:50:27.149Z,22.27
2019-04-30T23:52:56.332Z,21.70
2019-04-30T23:55:25.660Z,19.90
2019-04-30T23:57:54.786Z,18.60
